createdAt,value
2023-02-23T00:04:36.063Z,23.45
2023-02-23T00:10:39.497Z,23.73
2023-02-23T00:16:45.492Z,23.08
2023-02-23T00:22:49.071Z,22.77
2023-02-23T00:28:52.593Z,23.05
2023-02-23T00:34:58.448Z,22.77
2023-02-23T00:41:02.213Z,23.33
2023-02-23T00:47:05.749Z,22.45
2023-02-23T00:53:11.591Z,22.77
2023-02-23T00:59:15.922Z,22.67
2023-02-23T01:05:20.673Z,24.23
2023-02-23T01:11:27.846Z,22.38
2023-02-23T01:17:31.598Z,22.17
2023-02-23T01:23:35.163Z,23.33
2023-02-23T01:29:40.112Z,22.67
2023-02-23T01:35:43.664Z,22.92
2023-02-23T01:41:47.164Z,22.98
2023-02-23T01:47:52.301Z,21.48
2023-02-23T01:53:59.933Z,22.63
2023-02-23T02:00:07.787Z,23.35
2023-02-23T02:06:14.659Z,22.58
2023-02-23T02:12:19.209Z,23.83
2023-02-23T02:18:26.780Z,24.63
2023-02-23T02:24:40.418Z,21.02
2023-02-23T02:31:05.979Z,21.35
2023-02-23T02:37:28.205Z,20.73
2023-02-23T02:43:37.543Z,20.35
2023-02-23T02:49:46.994Z,21.08
2023-02-23T02:55:51.033Z,22.15
2023-02-23T03:02:13.495Z,22.70
2023-02-23T03:08:40.776Z,22.45
2023-02-23T03:15:06.020Z,22.63
2023-02-23T03:21:33.115Z,21.98
2023-02-23T03:28:02.492Z,21.00
2023-02-23T03:34:29.426Z,22.38
2023-02-23T03:40:54.423Z,22.40
2023-02-23T03:47:17.360Z,22.00
2023-02-23T03:53:40.583Z,23.33
2023-02-23T04:00:06.832Z,22.95
2023-02-23T04:06:31.054Z,24.33
2023-02-23T04:12:54.142Z,26.15
2023-02-23T04:18:59.356Z,24.67
2023-02-23T04:25:02.954Z,24.60
2023-02-23T04:31:06.513Z,23.63
2023-02-23T04:37:11.672Z,23.67
2023-02-23T04:43:15.302Z,23.23
2023-02-23T04:49:18.721Z,23.60
2023-02-23T04:55:24.831Z,22.75
2023-02-23T05:01:29.415Z,22.13
2023-02-23T05:07:32.860Z,22.08
2023-02-23T05:13:37.616Z,23.60
2023-02-23T05:19:41.216Z,23.65
2023-02-23T05:25:44.857Z,21.85
2023-02-23T05:31:49.720Z,22.45
2023-02-23T05:37:53.176Z,24.05
2023-02-23T05:43:56.761Z,26.08
2023-02-23T05:50:01.743Z,25.90
2023-02-23T05:56:06.025Z,25.40
2023-02-23T06:02:09.694Z,23.63
2023-02-23T06:08:14.495Z,23.70
2023-02-23T06:14:17.882Z,25.42
2023-02-23T06:20:21.648Z,26.20
2023-02-23T06:26:26.407Z,24.65
2023-02-23T06:32:29.852Z,24.00
2023-02-23T06:38:33.316Z,22.90
2023-02-23T06:44:38.328Z,24.20
2023-02-23T06:50:41.746Z,25.65
2023-02-23T06:56:45.413Z,24.20
2023-02-23T07:02:50.232Z,29.63
2023-02-23T07:08:53.624Z,29.35
2023-02-23T07:14:57.034Z,31.95
2023-02-23T07:21:02.263Z,29.98
2023-02-23T07:27:05.790Z,27.45
2023-02-23T07:33:09.200Z,25.27
2023-02-23T07:39:14.081Z,26.27
2023-02-23T07:45:18.020Z,26.67
2023-02-23T07:51:21.614Z,26.50
2023-02-23T07:57:27.134Z,26.75
2023-02-23T08:03:30.637Z,26.52
2023-02-23T08:09:35.497Z,27.85
2023-02-23T08:15:41.036Z,26.98
2023-02-23T08:21:44.681Z,26.85
2023-02-23T08:27:48.246Z,26.27
2023-02-23T08:33:53.085Z,24.75
2023-02-23T08:39:56.696Z,26.05
2023-02-23T08:46:00.233Z,23.80
2023-02-23T08:52:05.073Z,23.48
2023-02-23T08:58:10.699Z,26.20
2023-02-23T09:04:14.324Z,25.75
2023-02-23T09:10:20.911Z,27.95
2023-02-23T09:16:24.333Z,27.20
2023-02-23T09:22:28.025Z,25.77
2023-02-23T09:28:34.071Z,26.67
2023-02-23T09:34:37.775Z,24.92
2023-02-23T09:40:46.381Z,26.10
2023-02-23T09:46:57.679Z,25.65
2023-02-23T09:53:04.184Z,23.83
2023-02-23T09:59:10.031Z,25.10
2023-02-23T10:05:16.879Z,22.52
2023-02-23T10:11:25.713Z,21.40
2023-02-23T10:17:36.658Z,21.02
2023-02-23T10:23:43.636Z,21.48
2023-02-23T10:29:50.240Z,21.98
2023-02-23T10:36:07.393Z,21.98
2023-02-23T10:42:18.963Z,21.85
2023-02-23T10:48:24.428Z,20.17
2023-02-23T10:54:38.084Z,20.00
2023-02-23T11:00:43.025Z,19.45
2023-02-23T11:06:46.810Z,18.55
2023-02-23T11:12:50.791Z,17.00
2023-02-23T11:18:57.309Z,18.08
2023-02-23T11:25:06.781Z,18.75
2023-02-23T11:31:15.799Z,17.20
2023-02-23T11:37:24.224Z,18.70
2023-02-23T11:43:28.085Z,17.52
2023-02-23T11:49:33.263Z,16.90
2023-02-23T11:55:39.044Z,16.67
2023-02-23T12:01:45.641Z,16.25
2023-02-23T12:07:52.079Z,14.52
2023-02-23T12:14:01.066Z,13.23
2023-02-23T12:20:11.429Z,11.93
2023-02-23T12:26:19.047Z,10.98
2023-02-23T12:32:26.916Z,12.13
2023-02-23T12:38:33.136Z,11.25
2023-02-23T12:44:39.374Z,12.32
2023-02-23T12:50:48.303Z,11.98
2023-02-23T12:56:56.588Z,11.73
2023-02-23T13:03:13.248Z,10.75
2023-02-23T13:09:26.602Z,11.10
2023-02-23T13:15:33.451Z,9.98
2023-02-23T13:21:39.007Z,10.25
2023-02-23T13:27:47.075Z,10.30
2023-02-23T13:33:51.610Z,10.68
2023-02-23T13:39:58.543Z,10.10
2023-02-23T13:46:11.815Z,10.80
2023-02-23T13:52:31.286Z,9.32
2023-02-23T13:58:35.042Z,9.20
2023-02-23T14:04:43.026Z,9.20
2023-02-23T14:10:46.843Z,8.43
2023-02-23T14:17:05.547Z,8.35
2023-02-23T14:23:31.473Z,7.10
2023-02-23T14:29:41.235Z,6.55
2023-02-23T14:35:46.203Z,6.32
2023-02-23T14:41:54.805Z,5.63
2023-02-23T14:48:01.844Z,5.78
2023-02-23T14:54:15.563Z,5.13
2023-02-23T15:00:26.110Z,5.25
2023-02-23T15:06:29.529Z,5.28
2023-02-23T15:12:37.974Z,5.30
2023-02-23T15:18:44.734Z,5.68
2023-02-23T15:24:50.265Z,6.38
2023-02-23T15:30:55.897Z,6.63
2023-02-23T15:37:03.591Z,6.80
2023-02-23T15:43:07.156Z,6.03
2023-02-23T15:49:13.381Z,7.22
2023-02-23T15:55:20.192Z,6.75
2023-02-23T16:01:25.670Z,7.68
2023-02-23T16:07:38.216Z,9.60
2023-02-23T16:13:45.882Z,8.80
2023-02-23T16:19:49.404Z,9.70
2023-02-23T16:25:54.609Z,7.65
2023-02-23T16:32:01.601Z,7.47
2023-02-23T16:38:06.066Z,7.30
2023-02-23T16:44:09.774Z,7.57
2023-02-23T16:50:20.581Z,5.88
2023-02-23T16:56:25.680Z,6.15
2023-02-23T17:02:29.194Z,6.68
2023-02-23T17:08:35.767Z,6.83
2023-02-23T17:14:40.122Z,5.22
2023-02-23T17:20:43.648Z,4.10
2023-02-23T17:26:48.644Z,3.50
2023-02-23T17:32:53.452Z,3.20
2023-02-23T17:38:58.878Z,4.07
2023-02-23T17:45:04.686Z,3.08
2023-02-23T17:51:09.172Z,3.25
2023-02-23T17:57:12.719Z,5.28
2023-02-23T18:03:17.868Z,3.80
2023-02-23T18:09:21.421Z,2.92
2023-02-23T18:15:24.847Z,2.92
2023-02-23T18:21:30.453Z,3.38
2023-02-23T18:27:33.854Z,3.50
2023-02-23T18:33:37.351Z,3.83
2023-02-23T18:39:42.130Z,5.20
2023-02-23T18:45:45.544Z,6.35
2023-02-23T18:51:49.096Z,5.03
2023-02-23T18:57:53.986Z,5.60
2023-02-23T19:03:59.356Z,5.05
2023-02-23T19:10:03.153Z,5.80
2023-02-23T19:16:08.765Z,3.83
2023-02-23T19:22:12.198Z,4.13
2023-02-23T19:28:15.681Z,5.60
2023-02-23T19:34:20.809Z,4.53
2023-02-23T19:40:29.224Z,5.07
2023-02-23T19:46:32.706Z,4.25
2023-02-23T19:52:38.778Z,3.33
2023-02-23T19:58:44.803Z,3.25
2023-02-23T20:04:49.380Z,3.20
2023-02-23T20:10:54.433Z,4.50
2023-02-23T20:16:57.912Z,4.53
2023-02-23T20:23:01.702Z,3.83
2023-02-23T20:29:11.376Z,4.30
2023-02-23T20:35:15.465Z,2.67
2023-02-23T20:41:19.259Z,4.13
2023-02-23T20:47:24.734Z,3.38
2023-02-23T20:53:28.205Z,5.68
2023-02-23T20:59:32.453Z,3.80
2023-02-23T21:05:41.156Z,2.30
2023-02-23T21:11:44.837Z,2.70
2023-02-23T21:17:48.478Z,3.35
2023-02-23T21:23:53.266Z,3.85
2023-02-23T21:29:56.684Z,2.70
2023-02-23T21:36:00.179Z,2.60
2023-02-23T21:42:05.975Z,2.70
2023-02-23T21:48:09.431Z,2.60
2023-02-23T21:54:13.356Z,3.40
2023-02-23T22:00:19.326Z,2.58
2023-02-23T22:06:23.922Z,2.20
2023-02-23T22:12:27.656Z,3.05
2023-02-23T22:18:32.640Z,2.30
2023-02-23T22:24:36.143Z,1.92
2023-02-23T22:30:39.879Z,1.85
2023-02-23T22:36:44.874Z,2.67
2023-02-23T22:42:49.210Z,2.10
2023-02-23T22:48:52.598Z,2.20
2023-02-23T22:54:57.460Z,1.85
2023-02-23T23:01:04.173Z,2.05
2023-02-23T23:07:08.285Z,2.28
2023-02-23T23:13:13.026Z,1.77
2023-02-23T23:19:17.225Z,2.95
2023-02-23T23:25:23.137Z,2.17
2023-02-23T23:31:29.305Z,1.55
2023-02-23T23:37:32.889Z,2.50
2023-02-23T23:43:37.028Z,2.00
2023-02-23T23:49:42.402Z,1.73
2023-02-23T23:55:45.794Z,1.45
